Sveva — IBEU — position and weather

sailwx.info

Track history (hours):
 
Tides and Currents Weather Stations Pressure Air Temp Water Temp Dewpoint Dewpoint Depression Visibility Wind Speed Wind Dir Waves Ship Positions

Sveva

Last reported at 2017-Apr-27 22:28 UTC. Time now 2017-Apr-27 22:43 UTC.
Position S 24°14' W 046°19'.

Length 136 m; draft 7.7 m.

Type: Tanker. MMSI: 247359000.

Date/timePositionNaut miles runAvg speedWind from/ knotsBaromVisibWave heightAir tempDewpointWater temp
2017-Apr-27 22:28S 24°14' W 046°19'0 0.0
2017-Apr-27 21:58S 24°14' W 046°19'0 0.0
2017-Apr-27 21:28S 24°14' W 046°19'1 2.2
2017-Apr-27 21:00S 24°14' W 046°19'610.9
2017-Apr-27 20:30S 24°18' W 046°24'612.1
2017-Apr-27 20:00S 24°24' W 046°24'612.1
2017-Apr-27 19:29S 24°31' W 046°26'  
2017-Apr-20 05:34S 34°50' W 057°25'212.6
2017-Apr-20 05:23S 34°49' W 057°27'512.3
2017-Apr-20 05:00S 34°47' W 057°32'612.2
2017-Apr-20 04:30S 34°45' W 057°39'612.1
2017-Apr-20 04:00S 34°44' W 057°46'510.2
2017-Apr-20 03:30S 34°43' W 057°52'4 8.9
2017-Apr-20 03:00S 34°41' W 057°57'611.1
2017-Apr-20 02:30S 34°39' W 058°03'510.9
2017-Apr-20 02:00S 34°37' W 058°10'510.5
2017-Apr-20 01:30S 34°35' W 058°16'9 0.2
2017-Apr-18 11:47S 34°29' W 058°23'310.8
2017-Apr-18 11:30S 34°31' W 058°21'611.0
2017-Apr-18 10:57S 34°35' W 058°16'4 9.9
2017-Apr-18 10:30S 34°37' W 058°11'4 8.1
2017-Apr-18 10:00S 34°38' W 058°06'4 7.6
2017-Apr-18 09:30S 34°40' W 058°02'4 7.2
2017-Apr-18 09:00S 34°41' W 057°58'5 9.2
2017-Apr-18 08:30S 34°43' W 057°53'2 4.4
2017-Apr-18 07:57S 34°45' W 057°50'0 0.0
2017-Apr-18 07:27S 34°45' W 057°50'0 0.0
2017-Apr-18 06:57S 34°45' W 057°50'0 0.0
2017-Apr-18 06:27S 34°45' W 057°50'0 0.0
2017-Apr-18 06:00S 34°45' W 057°50'0 0.0
2017-Apr-18 05:24S 34°45' W 057°50'0 0.0
2017-Apr-18 04:57S 34°45' W 057°50'0 0.1
2017-Apr-18 02:54S 34°45' W 057°51'0 0.1
2017-Apr-18 02:30S 34°45' W 057°51'0 0.0
2017-Apr-18 02:00S 34°45' W 057°51'0 0.0
2017-Apr-18 01:30S 34°45' W 057°51'0 0.0
2017-Apr-18 01:00S 34°45' W 057°51'0 0.0
2017-Apr-18 00:30S 34°45' W 057°51'0 0.0
2017-Apr-17 23:57S 34°45' W 057°51'0 0.0
2017-Apr-17 23:30S 34°45' W 057°51'0 0.0
2017-Apr-17 23:00S 34°45' W 057°51'0 0.0
2017-Apr-17 22:30S 34°45' W 057°51'  
Track history (hours):
 
Tides and Currents Weather Stations Pressure Air Temp Water Temp Dewpoint Dewpoint Depression Visibility Wind Speed Wind Dir Waves Ship Positions

Sveva

Last reported at 2017-Apr-27 22:28 UTC. Time now 2017-Apr-27 22:43 UTC.
Position S 24°14' W 046°19'.

Length 136 m; draft 7.7 m.

Type: Tanker. MMSI: 247359000.

Date/timePositionNaut miles runAvg speedWind from/ knotsBaromVisibWave heightAir tempDewpointWater temp
2017-Apr-27 22:28S 24°14' W 046°19'0 0.0
2017-Apr-27 21:58S 24°14' W 046°19'0 0.0
2017-Apr-27 21:28S 24°14' W 046°19'1 2.2
2017-Apr-27 21:00S 24°14' W 046°19'610.9
2017-Apr-27 20:30S 24°18' W 046°24'612.1
2017-Apr-27 20:00S 24°24' W 046°24'612.1
2017-Apr-27 19:29S 24°31' W 046°26'  
2017-Apr-20 05:34S 34°50' W 057°25'212.6
2017-Apr-20 05:23S 34°49' W 057°27'512.3
2017-Apr-20 05:00S 34°47' W 057°32'612.2
2017-Apr-20 04:30S 34°45' W 057°39'612.1
2017-Apr-20 04:00S 34°44' W 057°46'510.2
2017-Apr-20 03:30S 34°43' W 057°52'4 8.9
2017-Apr-20 03:00S 34°41' W 057°57'611.1
2017-Apr-20 02:30S 34°39' W 058°03'510.9
2017-Apr-20 02:00S 34°37' W 058°10'510.5
2017-Apr-20 01:30S 34°35' W 058°16'9 0.2
2017-Apr-18 11:47S 34°29' W 058°23'310.8
2017-Apr-18 11:30S 34°31' W 058°21'611.0
2017-Apr-18 10:57S 34°35' W 058°16'4 9.9
2017-Apr-18 10:30S 34°37' W 058°11'4 8.1
2017-Apr-18 10:00S 34°38' W 058°06'4 7.6
2017-Apr-18 09:30S 34°40' W 058°02'4 7.2
2017-Apr-18 09:00S 34°41' W 057°58'5 9.2
2017-Apr-18 08:30S 34°43' W 057°53'2 4.4
2017-Apr-18 07:57S 34°45' W 057°50'0 0.0
2017-Apr-18 07:27S 34°45' W 057°50'0 0.0
2017-Apr-18 06:57S 34°45' W 057°50'0 0.0
2017-Apr-18 06:27S 34°45' W 057°50'0 0.0
2017-Apr-18 06:00S 34°45' W 057°50'0 0.0
2017-Apr-18 05:24S 34°45' W 057°50'0 0.0
2017-Apr-18 04:57S 34°45' W 057°50'0 0.1
2017-Apr-18 02:54S 34°45' W 057°51'0 0.1
2017-Apr-18 02:30S 34°45' W 057°51'0 0.0
2017-Apr-18 02:00S 34°45' W 057°51'0 0.0
2017-Apr-18 01:30S 34°45' W 057°51'0 0.0
2017-Apr-18 01:00S 34°45' W 057°51'0 0.0
2017-Apr-18 00:30S 34°45' W 057°51'0 0.0
2017-Apr-17 23:57S 34°45' W 057°51'0 0.0
2017-Apr-17 23:30S 34°45' W 057°51'0 0.0
2017-Apr-17 23:00S 34°45' W 057°51'0 0.0
2017-Apr-17 22:30S 34°45' W 057°51'  

Dump ship's entire track history